Eikamaru No.2 — JD3056 — position and weather

sailwx.info

Track history (hours):
 
Tides and Currents Weather Stations Pressure Air Temp Water Temp Dewpoint Dewpoint Depression Visibility Wind Speed Wind Dir Waves Ship Positions

Eikamaru No.2

Last reported at 2017-Jan-23 05:30 UTC. Time now 2017-Jan-25 01:25 UTC.
Position N 33°53' E 132°42'.

Length 60 m; draft 3.3 m.

Type: Tanker. MMSI: 431001342.

Date/timePositionNaut miles runAvg speedWind from/ knotsBaromVisibWave heightAir tempDewpointWater temp
2017-Jan-23 05:30N 33°53' E 132°42'3 3.1
2017-Jan-23 04:33N 33°50' E 132°42'0 0.0
2017-Jan-23 03:33N 33°50' E 132°42'0 0.1
2017-Jan-23 02:33N 33°50' E 132°42'3 3.2
2017-Jan-23 01:33N 33°47' E 132°42'0 0.0
2017-Jan-23 00:34N 33°47' E 132°42'0 0.0
2017-Jan-22 23:33N 33°47' E 132°42'1 1.2
2017-Jan-22 22:33N 33°48' E 132°41'4 4.0
2017-Jan-22 21:34N 33°52' E 132°40'0 0.0
2017-Jan-22 20:34N 33°52' E 132°40'0 0.0
2017-Jan-22 19:33N 33°52' E 132°40'0 0.0
2017-Jan-22 18:33N 33°52' E 132°40'0 0.0
2017-Jan-22 17:34N 33°52' E 132°40'0 0.0
2017-Jan-22 16:33N 33°52' E 132°40'0 0.0
2017-Jan-22 15:33N 33°52' E 132°40'0 0.0
2017-Jan-22 14:34N 33°52' E 132°40'0 0.0
2017-Jan-22 13:34N 33°52' E 132°40'3 3.0
2017-Jan-22 12:33N 33°54' E 132°42'  
2017-Jan-18 07:27N 35°08' E 139°42'910.5
2017-Jan-18 06:33N 35°17' E 139°45'10 9.8
2017-Jan-18 05:33N 35°27' E 139°47'9 9.4
2017-Jan-18 04:33N 35°27' E 139°58'0 0.1
2017-Jan-18 03:33N 35°27' E 139°58'3 3.0
2017-Jan-18 02:30N 35°29' E 139°55'9 9.1
2017-Jan-18 01:33N 35°32' E 139°45'0 0.0
2017-Jan-18 00:33N 35°32' E 139°45'0 0.0
2017-Jan-17 23:33N 35°32' E 139°45'1 1.0
2017-Jan-17 22:33N 35°31' E 139°46'9 9.0
2017-Jan-17 21:33N 35°35' E 139°56'6 5.8
2017-Jan-17 20:31N 35°41' E 139°59'0 0.0
2017-Jan-17 19:21N 35°41' E 139°59'0 0.0
2017-Jan-17 17:32N 35°41' E 139°59'0 0.0
2017-Jan-17 16:31N 35°41' E 139°59'0 0.0
2017-Jan-17 06:33N 35°40' E 139°59'1110.8
2017-Jan-17 05:33N 35°31' E 139°51'5 5.0
2017-Jan-17 04:33N 35°32' E 139°45'0 0.0
2017-Jan-17 03:33N 35°32' E 139°45'0 0.0
2017-Jan-17 02:33N 35°32' E 139°45'0 0.0
2017-Jan-17 01:33N 35°32' E 139°45'0 0.0
2017-Jan-17 00:33N 35°32' E 139°45'0 0.0
2017-Jan-16 23:33N 35°32' E 139°45'5 4.6
2017-Jan-16 22:33N 35°30' E 139°51'0 0.1
2017-Jan-16 21:33N 35°30' E 139°51'0 0.0
2017-Jan-16 20:33N 35°30' E 139°51'0 0.0
2017-Jan-16 19:33N 35°30' E 139°51'0 0.0
2017-Jan-16 18:33N 35°30' E 139°51'0 0.0
2017-Jan-16 17:33N 35°30' E 139°51'0 0.0
2017-Jan-16 16:33N 35°30' E 139°51'0 0.0
2017-Jan-16 15:33N 35°30' E 139°51'4 4.1
2017-Jan-16 14:33N 35°27' E 139°48'9 9.4
2017-Jan-16 13:33N 35°18' E 139°45'10 9.1
2017-Jan-16 12:28N 35°08' E 139°46'  
2017-Jan-13 07:32N 34°37' E 135°02'8 8.0
2017-Jan-13 06:33N 34°35' E 135°11'  
Track history (hours):
 
Tides and Currents Weather Stations Pressure Air Temp Water Temp Dewpoint Dewpoint Depression Visibility Wind Speed Wind Dir Waves Ship Positions

Eikamaru No.2

Last reported at 2017-Jan-23 05:30 UTC. Time now 2017-Jan-25 01:25 UTC.
Position N 33°53' E 132°42'.

Length 60 m; draft 3.3 m.

Type: Tanker. MMSI: 431001342.

Date/timePositionNaut miles runAvg speedWind from/ knotsBaromVisibWave heightAir tempDewpointWater temp
2017-Jan-23 05:30N 33°53' E 132°42'3 3.1
2017-Jan-23 04:33N 33°50' E 132°42'0 0.0
2017-Jan-23 03:33N 33°50' E 132°42'0 0.1
2017-Jan-23 02:33N 33°50' E 132°42'3 3.2
2017-Jan-23 01:33N 33°47' E 132°42'0 0.0
2017-Jan-23 00:34N 33°47' E 132°42'0 0.0
2017-Jan-22 23:33N 33°47' E 132°42'1 1.2
2017-Jan-22 22:33N 33°48' E 132°41'4 4.0
2017-Jan-22 21:34N 33°52' E 132°40'0 0.0
2017-Jan-22 20:34N 33°52' E 132°40'0 0.0
2017-Jan-22 19:33N 33°52' E 132°40'0 0.0
2017-Jan-22 18:33N 33°52' E 132°40'0 0.0
2017-Jan-22 17:34N 33°52' E 132°40'0 0.0
2017-Jan-22 16:33N 33°52' E 132°40'0 0.0
2017-Jan-22 15:33N 33°52' E 132°40'0 0.0
2017-Jan-22 14:34N 33°52' E 132°40'0 0.0
2017-Jan-22 13:34N 33°52' E 132°40'3 3.0
2017-Jan-22 12:33N 33°54' E 132°42'  
2017-Jan-18 07:27N 35°08' E 139°42'910.5
2017-Jan-18 06:33N 35°17' E 139°45'10 9.8
2017-Jan-18 05:33N 35°27' E 139°47'9 9.4
2017-Jan-18 04:33N 35°27' E 139°58'0 0.1
2017-Jan-18 03:33N 35°27' E 139°58'3 3.0
2017-Jan-18 02:30N 35°29' E 139°55'9 9.1
2017-Jan-18 01:33N 35°32' E 139°45'0 0.0
2017-Jan-18 00:33N 35°32' E 139°45'0 0.0
2017-Jan-17 23:33N 35°32' E 139°45'1 1.0
2017-Jan-17 22:33N 35°31' E 139°46'9 9.0
2017-Jan-17 21:33N 35°35' E 139°56'6 5.8
2017-Jan-17 20:31N 35°41' E 139°59'0 0.0
2017-Jan-17 19:21N 35°41' E 139°59'0 0.0
2017-Jan-17 17:32N 35°41' E 139°59'0 0.0
2017-Jan-17 16:31N 35°41' E 139°59'0 0.0
2017-Jan-17 06:33N 35°40' E 139°59'1110.8
2017-Jan-17 05:33N 35°31' E 139°51'5 5.0
2017-Jan-17 04:33N 35°32' E 139°45'0 0.0
2017-Jan-17 03:33N 35°32' E 139°45'0 0.0
2017-Jan-17 02:33N 35°32' E 139°45'0 0.0
2017-Jan-17 01:33N 35°32' E 139°45'0 0.0
2017-Jan-17 00:33N 35°32' E 139°45'0 0.0
2017-Jan-16 23:33N 35°32' E 139°45'5 4.6
2017-Jan-16 22:33N 35°30' E 139°51'0 0.1
2017-Jan-16 21:33N 35°30' E 139°51'0 0.0
2017-Jan-16 20:33N 35°30' E 139°51'0 0.0
2017-Jan-16 19:33N 35°30' E 139°51'0 0.0
2017-Jan-16 18:33N 35°30' E 139°51'0 0.0
2017-Jan-16 17:33N 35°30' E 139°51'0 0.0
2017-Jan-16 16:33N 35°30' E 139°51'0 0.0
2017-Jan-16 15:33N 35°30' E 139°51'4 4.1
2017-Jan-16 14:33N 35°27' E 139°48'9 9.4
2017-Jan-16 13:33N 35°18' E 139°45'10 9.1
2017-Jan-16 12:28N 35°08' E 139°46'  
2017-Jan-13 07:32N 34°37' E 135°02'8 8.0
2017-Jan-13 06:33N 34°35' E 135°11'  

Dump ship's entire track history